createdAt,value
2022-11-12T00:01:38.276Z,23.75
2022-11-12T00:04:23.795Z,25.65
2022-11-12T00:07:09.668Z,28.70
2022-11-12T00:09:54.879Z,24.77
2022-11-12T00:12:41.317Z,27.80
2022-11-12T00:15:26.890Z,28.80
2022-11-12T00:18:12.259Z,29.88
2022-11-12T00:20:57.932Z,28.58
2022-11-12T00:23:44.035Z,29.42
2022-11-12T00:26:29.339Z,27.35
2022-11-12T00:29:15.081Z,26.10
2022-11-12T00:32:00.399Z,27.30
2022-11-12T00:34:46.166Z,28.85
2022-11-12T00:37:31.488Z,30.45
2022-11-12T00:40:17.389Z,28.42
2022-11-12T00:43:02.758Z,28.73
2022-11-12T00:45:48.433Z,28.42
2022-11-12T00:48:33.817Z,28.05
2022-11-12T00:51:19.023Z,27.95
2022-11-12T00:54:04.985Z,28.15
2022-11-12T00:56:50.691Z,28.85
2022-11-12T00:59:36.073Z,29.92
2022-11-12T01:02:22.276Z,27.17
2022-11-12T01:05:08.348Z,26.92
2022-11-12T01:07:56.218Z,30.08
2022-11-12T01:10:41.962Z,26.77
2022-11-12T01:13:46.182Z,24.98
2022-11-12T01:16:37.533Z,26.00
2022-11-12T01:19:23.080Z,25.52
2022-11-12T01:22:09.265Z,25.52
2022-11-12T01:24:54.737Z,24.40
2022-11-12T01:27:41.151Z,25.48
2022-11-12T01:30:27.189Z,25.58
2022-11-12T01:33:12.694Z,22.73
2022-11-12T01:35:59.872Z,22.77
2022-11-12T01:38:47.168Z,22.90
2022-11-12T01:41:36.517Z,22.25
2022-11-12T01:44:26.892Z,22.00
2022-11-12T01:47:23.803Z,22.33
2022-11-12T01:50:34.290Z,22.90
2022-11-12T01:53:22.579Z,23.08
2022-11-12T01:56:08.163Z,24.17
2022-11-12T01:59:00.858Z,21.08
2022-11-12T02:01:46.125Z,22.63
2022-11-12T02:04:33.846Z,21.55
2022-11-12T02:07:20.236Z,23.40
2022-11-12T02:10:08.271Z,20.40
2022-11-12T02:13:13.679Z,20.42
2022-11-12T02:15:59.416Z,22.88
2022-11-12T02:18:44.784Z,22.42
2022-11-12T02:21:31.931Z,24.20
2022-11-12T02:24:17.398Z,22.38
2022-11-12T02:27:05.315Z,23.15
2022-11-12T02:29:50.808Z,22.90
2022-11-12T02:32:36.221Z,22.95
2022-11-12T02:35:21.845Z,24.13
2022-11-12T02:38:09.024Z,24.10
2022-11-12T02:40:54.503Z,24.48
2022-11-12T02:43:40.995Z,22.70
2022-11-12T02:46:26.438Z,23.33
2022-11-12T02:49:11.981Z,22.70
2022-11-12T02:51:57.802Z,23.77
2022-11-12T02:54:43.498Z,23.25
2022-11-12T02:57:30.422Z,23.23
2022-11-12T03:00:16.730Z,23.35
2022-11-12T03:03:02.746Z,24.25
2022-11-12T03:06:00.911Z,24.45
2022-11-12T03:08:46.633Z,23.83
2022-11-12T03:11:32.213Z,22.67
2022-11-12T03:14:18.414Z,22.45
2022-11-12T03:17:04.854Z,22.15
2022-11-12T03:19:51.235Z,23.35
2022-11-12T03:22:38.433Z,22.10
2022-11-12T03:25:25.000Z,23.83
2022-11-12T03:28:15.377Z,25.58
2022-11-12T03:31:01.894Z,23.35
2022-11-12T03:33:47.554Z,24.23
2022-11-12T03:36:33.331Z,23.15
2022-11-12T03:39:19.006Z,24.63
2022-11-12T03:42:05.080Z,23.38
2022-11-12T03:44:50.807Z,25.08
2022-11-12T03:47:36.942Z,25.55
2022-11-12T03:50:27.610Z,28.40
2022-11-12T03:53:12.881Z,27.13
2022-11-12T03:55:58.443Z,28.13
2022-11-12T03:58:44.088Z,25.73
2022-11-12T04:01:30.074Z,27.58
2022-11-12T04:04:15.491Z,26.35
2022-11-12T04:07:19.627Z,26.95
2022-11-12T04:10:05.633Z,28.92
2022-11-12T04:13:09.722Z,26.80
2022-11-12T04:16:24.593Z,29.70
2022-11-12T04:19:31.533Z,27.63
2022-11-12T04:22:17.554Z,28.60
2022-11-12T04:25:22.131Z,29.67
2022-11-12T04:28:08.022Z,28.42
2022-11-12T04:30:53.746Z,29.00
2022-11-12T04:33:38.991Z,28.73
2022-11-12T04:36:24.445Z,28.95
2022-11-12T04:39:09.745Z,30.08
2022-11-12T04:42:14.572Z,30.90
2022-11-12T04:45:01.203Z,31.33
2022-11-12T04:47:46.760Z,31.48
2022-11-12T04:50:32.923Z,33.72
2022-11-12T04:53:19.053Z,33.10
2022-11-12T04:56:04.917Z,34.60
2022-11-12T04:58:50.917Z,34.03
2022-11-12T05:01:36.705Z,35.70
2022-11-12T05:04:22.358Z,34.85
2022-11-12T05:07:08.033Z,35.15
2022-11-12T05:09:53.479Z,35.30
2022-11-12T05:12:39.694Z,36.40
2022-11-12T05:15:25.450Z,36.85
2022-11-12T05:18:11.269Z,36.20
2022-11-12T05:20:56.546Z,36.22
2022-11-12T05:23:42.344Z,38.60
2022-11-12T05:26:28.031Z,37.35
2022-11-12T05:29:14.159Z,39.88
2022-11-12T05:31:59.657Z,40.42
2022-11-12T05:34:45.355Z,41.88
2022-11-12T05:37:30.811Z,42.35
2022-11-12T05:40:17.446Z,42.78
2022-11-12T05:43:03.109Z,42.95
2022-11-12T05:45:48.631Z,41.83
2022-11-12T05:48:35.110Z,42.47
2022-11-12T05:51:21.053Z,44.40
2022-11-12T05:54:06.882Z,45.17
2022-11-12T05:56:53.676Z,45.13
2022-11-12T05:59:39.067Z,44.83
2022-11-12T06:02:24.641Z,46.45
2022-11-12T06:05:10.369Z,48.05
2022-11-12T06:07:55.836Z,46.58
2022-11-12T06:10:41.482Z,46.67
2022-11-12T06:13:27.961Z,49.15
2022-11-12T06:16:13.825Z,51.70
2022-11-12T06:18:59.434Z,50.95
2022-11-12T06:21:45.292Z,52.97
2022-11-12T06:24:35.309Z,50.35
2022-11-12T06:27:24.028Z,50.92
2022-11-12T06:30:10.398Z,55.60
2022-11-12T06:32:56.070Z,54.63
2022-11-12T06:35:43.354Z,56.70
2022-11-12T06:38:34.405Z,59.17
2022-11-12T06:41:20.188Z,52.63
2022-11-12T06:44:06.101Z,54.72
2022-11-12T06:46:52.626Z,57.05
2022-11-12T06:49:38.390Z,54.92
2022-11-12T06:52:24.166Z,52.92
2022-11-12T06:55:09.768Z,53.05
2022-11-12T06:57:55.076Z,56.15
2022-11-12T07:00:40.937Z,50.65
2022-11-12T07:03:26.206Z,59.00
2022-11-12T07:06:18.463Z,60.42
2022-11-12T07:09:06.036Z,56.22
2022-11-12T07:11:52.002Z,57.00
2022-11-12T07:14:38.055Z,64.90
2022-11-12T07:17:23.490Z,67.88
2022-11-12T07:20:10.666Z,66.85
2022-11-12T07:23:01.557Z,67.40
2022-11-12T07:25:47.009Z,72.10
2022-11-12T07:28:32.650Z,72.85
2022-11-12T07:31:20.483Z,74.45
2022-11-12T07:34:06.075Z,72.72
2022-11-12T07:36:51.946Z,75.28
2022-11-12T07:39:37.336Z,75.05
2022-11-12T07:42:22.999Z,73.82
2022-11-12T07:45:09.661Z,69.40
2022-11-12T07:47:59.443Z,70.15
2022-11-12T07:50:45.157Z,69.28
2022-11-12T07:53:31.706Z,67.95
2022-11-12T07:56:20.724Z,70.82
2022-11-12T07:59:07.996Z,71.80
2022-11-12T08:01:53.554Z,68.95
2022-11-12T08:04:39.117Z,72.18
2022-11-12T08:07:24.858Z,69.40
2022-11-12T08:10:10.562Z,70.47
2022-11-12T08:12:58.996Z,72.40
2022-11-12T08:15:51.001Z,67.78
2022-11-12T08:18:39.035Z,69.45
2022-11-12T08:21:24.878Z,72.35
2022-11-12T08:24:10.811Z,66.80
2022-11-12T08:26:56.249Z,70.28
2022-11-12T08:29:41.463Z,73.68
2022-11-12T08:32:27.415Z,74.97
2022-11-12T08:35:13.364Z,79.90
2022-11-12T08:38:04.770Z,70.60
2022-11-12T08:40:50.210Z,72.70
2022-11-12T08:43:36.054Z,74.25
2022-11-12T08:46:22.162Z,79.18
2022-11-12T08:49:08.081Z,81.95
2022-11-12T08:51:53.887Z,77.13
2022-11-12T08:54:39.476Z,76.93
2022-11-12T08:57:24.796Z,81.65
2022-11-12T09:00:12.595Z,82.97
2022-11-12T09:03:05.472Z,79.43
2022-11-12T09:05:52.591Z,79.10
2022-11-12T09:08:39.777Z,76.25
2022-11-12T09:11:25.406Z,80.35
2022-11-12T09:14:10.838Z,81.30
2022-11-12T09:16:56.435Z,82.50
2022-11-12T09:19:43.174Z,85.28
2022-11-12T09:22:29.592Z,82.18
2022-11-12T09:25:15.167Z,81.65
2022-11-12T09:28:13.141Z,79.97
2022-11-12T09:30:59.697Z,71.60
2022-11-12T09:33:45.398Z,76.85
2022-11-12T09:36:32.768Z,72.47
2022-11-12T09:39:21.565Z,73.32
2022-11-12T09:42:16.989Z,73.30
2022-11-12T09:45:24.202Z,67.95
2022-11-12T09:48:17.731Z,66.85
2022-11-12T09:51:57.281Z,65.72
2022-11-12T09:54:43.337Z,62.63
2022-11-12T09:57:29.000Z,59.17
2022-11-12T10:00:23.688Z,52.75
2022-11-12T10:03:34.499Z,51.90
2022-11-12T10:06:24.998Z,47.50
2022-11-12T10:09:24.151Z,45.65
2022-11-12T10:12:37.240Z,42.63
2022-11-12T10:16:10.456Z,41.50
2022-11-12T10:19:35.035Z,32.53
2022-11-12T10:22:34.372Z,28.98
2022-11-12T10:25:21.612Z,25.33
2022-11-12T10:28:38.890Z,23.70
2022-11-12T10:31:24.981Z,23.85
2022-11-12T10:34:16.066Z,22.55
2022-11-12T10:37:14.604Z,23.02
2022-11-12T10:40:21.427Z,21.73
2022-11-12T10:43:23.967Z,21.77
2022-11-12T10:46:27.742Z,22.48
2022-11-12T10:49:16.480Z,23.50
2022-11-12T10:52:02.014Z,23.00
2022-11-12T10:54:52.379Z,23.50
2022-11-12T10:57:40.582Z,23.58
2022-11-12T11:00:26.568Z,23.67
2022-11-12T11:03:25.672Z,25.23
2022-11-12T11:06:14.274Z,25.83
2022-11-12T11:09:18.039Z,26.30
2022-11-12T11:12:03.679Z,28.52
2022-11-12T11:15:18.397Z,30.02
2022-11-12T11:18:04.031Z,31.45
2022-11-12T11:21:19.821Z,33.20
2022-11-12T11:28:10.109Z,33.22
2022-11-12T11:31:28.602Z,33.13
2022-11-12T11:34:31.790Z,35.47
2022-11-12T11:37:30.202Z,34.75
2022-11-12T11:40:36.301Z,37.50
2022-11-12T11:43:40.219Z,32.85
2022-11-12T11:46:44.261Z,33.55
2022-11-12T11:49:43.326Z,29.85
2022-11-12T11:52:39.354Z,28.35
2022-11-12T11:55:36.351Z,27.65
2022-11-12T11:59:00.435Z,27.27
2022-11-12T12:02:26.829Z,27.40
2022-11-12T12:05:56.246Z,24.88
2022-11-12T12:09:26.987Z,24.45
2022-11-12T12:13:17.333Z,27.52
2022-11-12T12:16:37.573Z,28.63
2022-11-12T12:19:57.088Z,28.90
2022-11-12T12:23:15.512Z,31.15
2022-11-12T12:26:09.853Z,32.90
2022-11-12T12:32:09.866Z,34.60
2022-11-12T12:35:21.779Z,37.75
2022-11-12T12:38:20.749Z,40.17
2022-11-12T12:41:12.585Z,43.20
2022-11-12T12:44:10.646Z,43.05
2022-11-12T12:47:01.834Z,43.88
2022-11-12T12:49:49.568Z,41.95
2022-11-12T12:53:17.515Z,41.60
2022-11-12T12:56:12.862Z,42.90
2022-11-12T12:59:03.701Z,43.72
2022-11-12T13:02:00.457Z,43.20
2022-11-12T13:04:57.516Z,46.38
2022-11-12T13:07:48.780Z,43.83
2022-11-12T13:10:37.049Z,44.80
2022-11-12T13:13:37.713Z,44.10
2022-11-12T13:17:05.486Z,46.28
2022-11-12T13:19:54.155Z,45.25
2022-11-12T13:22:39.961Z,45.30
2022-11-12T13:25:29.803Z,46.47
2022-11-12T13:28:15.643Z,43.53
2022-11-12T13:31:03.796Z,45.92
2022-11-12T13:33:49.929Z,43.53
2022-11-12T13:36:35.481Z,46.33
2022-11-12T13:39:24.228Z,45.80
2022-11-12T13:42:35.753Z,48.15
2022-11-12T13:45:27.536Z,43.15
2022-11-12T13:48:23.370Z,46.95
2022-11-12T13:51:17.610Z,46.00
2022-11-12T13:54:27.920Z,41.20
2022-11-12T13:57:24.804Z,43.92
2022-11-12T14:00:31.926Z,43.38
2022-11-12T14:03:19.384Z,44.30
2022-11-12T14:06:20.122Z,45.22
2022-11-12T14:09:36.726Z,44.50
2022-11-12T14:12:46.755Z,42.33
2022-11-12T14:15:57.913Z,44.28
2022-11-12T14:19:23.748Z,42.70
2022-11-12T14:22:21.773Z,45.28
2022-11-12T14:25:24.049Z,45.38
2022-11-12T14:28:34.199Z,42.63
2022-11-12T14:31:24.691Z,44.63
2022-11-12T14:34:28.224Z,45.65
2022-11-12T14:37:43.236Z,45.88
2022-11-12T14:40:33.815Z,45.35
2022-11-12T14:43:38.419Z,44.13
2022-11-12T14:46:38.786Z,44.28
2022-11-12T14:49:44.942Z,45.53
2022-11-12T14:52:44.335Z,46.20
2022-11-12T14:55:35.022Z,47.22
2022-11-12T14:58:22.846Z,45.08
2022-11-12T15:05:21.138Z,44.95
2022-11-12T15:08:11.951Z,47.63
2022-11-12T15:11:28.144Z,46.60
2022-11-12T15:14:22.571Z,47.28
2022-11-12T15:20:20.261Z,44.78
2022-11-12T15:23:14.092Z,44.53
2022-11-12T15:26:01.434Z,47.05
2022-11-12T15:29:24.021Z,49.45
2022-11-12T15:32:13.745Z,49.55
2022-11-12T15:34:59.759Z,50.47
2022-11-12T15:37:45.538Z,49.33
2022-11-12T15:40:33.466Z,47.85
2022-11-12T15:43:24.451Z,48.10
2022-11-12T15:46:16.373Z,49.88
2022-11-12T15:49:01.942Z,50.25
2022-11-12T15:51:47.422Z,50.33
2022-11-12T15:54:38.157Z,49.92
2022-11-12T15:57:30.783Z,48.42
2022-11-12T16:00:25.700Z,49.75
2022-11-12T16:06:08.307Z,48.38
2022-11-12T16:08:54.787Z,48.55
2022-11-12T16:11:40.516Z,60.45
2022-11-12T16:14:27.233Z,53.22
2022-11-12T16:17:18.527Z,53.65
2022-11-12T16:20:38.195Z,53.75
2022-11-12T16:23:23.665Z,50.70
2022-11-12T16:26:12.659Z,50.55
2022-11-12T16:28:59.885Z,49.65
2022-11-12T16:31:45.308Z,48.28
2022-11-12T16:34:30.913Z,51.10
2022-11-12T16:37:16.251Z,49.75
2022-11-12T16:40:01.649Z,52.25
2022-11-12T16:42:47.255Z,52.30
2022-11-12T16:45:38.863Z,56.00
2022-11-12T16:48:24.378Z,48.50
2022-11-12T16:51:17.450Z,52.78
2022-11-12T16:54:03.124Z,52.45
2022-11-12T16:56:48.923Z,49.60
2022-11-12T16:59:34.779Z,52.53
2022-11-12T17:02:20.515Z,52.92
2022-11-12T17:05:12.828Z,51.78
2022-11-12T17:07:58.324Z,54.00
2022-11-12T17:10:43.908Z,54.45
2022-11-12T17:13:29.640Z,46.67
2022-11-12T17:16:15.961Z,50.53
2022-11-12T17:19:22.087Z,52.55
2022-11-12T17:22:07.621Z,51.72
2022-11-12T17:24:53.162Z,52.05
2022-11-12T17:27:38.719Z,50.50
2022-11-12T17:30:24.442Z,49.83
2022-11-12T17:33:09.857Z,54.20
2022-11-12T17:36:01.087Z,52.53
2022-11-12T17:38:46.497Z,50.72
2022-11-12T17:41:31.963Z,56.03
2022-11-12T17:44:19.600Z,49.38
2022-11-12T17:47:05.427Z,50.47
2022-11-12T17:49:51.124Z,49.40
2022-11-12T17:52:36.587Z,49.20
2022-11-12T17:55:22.124Z,52.13
2022-11-12T17:58:08.093Z,49.38
2022-11-12T18:00:53.970Z,49.15
2022-11-12T18:03:41.799Z,50.00
2022-11-12T18:06:32.699Z,52.33
2022-11-12T18:09:18.351Z,53.75
2022-11-12T18:12:05.142Z,44.97
2022-11-12T18:14:51.170Z,56.03
2022-11-12T18:17:36.945Z,56.50
2022-11-12T18:20:24.816Z,60.25
2022-11-12T18:23:10.461Z,59.45
2022-11-12T18:25:55.760Z,60.78
2022-11-12T18:28:42.631Z,60.03
2022-11-12T18:31:29.617Z,59.15
2022-11-12T18:34:15.246Z,58.28
2022-11-12T18:37:00.639Z,57.15
2022-11-12T18:39:46.206Z,57.00
2022-11-12T18:42:31.516Z,56.63
2022-11-12T18:45:17.624Z,54.88
2022-11-12T18:48:04.695Z,54.63
2022-11-12T18:50:50.249Z,53.65
2022-11-12T18:53:37.838Z,52.75
2022-11-12T18:56:23.350Z,50.83
2022-11-12T18:59:12.587Z,52.22
2022-11-12T19:01:59.471Z,50.53
2022-11-12T19:04:45.598Z,45.08
2022-11-12T19:07:31.664Z,51.45
2022-11-12T19:10:17.488Z,53.28
2022-11-12T19:13:05.064Z,52.60
2022-11-12T19:15:51.451Z,52.22
2022-11-12T19:18:39.627Z,55.38
2022-11-12T19:21:26.361Z,53.55
2022-11-12T19:24:11.642Z,53.08
2022-11-12T19:26:57.567Z,55.25
2022-11-12T19:29:43.690Z,55.50
2022-11-12T19:32:29.695Z,45.30
2022-11-12T19:35:15.203Z,50.60
2022-11-12T19:38:00.716Z,52.22
2022-11-12T19:40:47.336Z,52.90
2022-11-12T19:43:33.236Z,54.35
2022-11-12T19:46:19.571Z,78.22
2022-11-12T19:49:05.414Z,64.60
2022-11-12T19:51:50.934Z,63.60
2022-11-12T19:54:36.096Z,67.63
2022-11-12T19:57:22.891Z,64.00
2022-11-12T20:00:10.852Z,65.75
2022-11-12T20:02:56.629Z,70.63
2022-11-12T20:05:42.542Z,66.18
2022-11-12T20:08:29.055Z,60.90
2022-11-12T20:11:16.405Z,61.50
2022-11-12T20:14:02.849Z,62.50
2022-11-12T20:16:50.466Z,58.47
2022-11-12T20:19:36.311Z,59.17
2022-11-12T20:22:21.596Z,59.80
2022-11-12T20:25:07.574Z,60.38
2022-11-12T20:27:53.186Z,56.92
2022-11-12T20:30:38.984Z,52.65
2022-11-12T20:33:24.570Z,54.70
2022-11-12T20:36:16.881Z,52.20
2022-11-12T20:39:03.240Z,63.00
2022-11-12T20:41:48.902Z,61.58
2022-11-12T20:44:34.234Z,59.50
2022-11-12T20:47:19.714Z,61.22
2022-11-12T20:50:05.919Z,58.35
2022-11-12T20:52:51.367Z,66.35
2022-11-12T20:55:36.875Z,52.47
2022-11-12T20:58:22.857Z,50.78
2022-11-12T21:01:13.046Z,50.15
2022-11-12T21:03:58.988Z,50.15
2022-11-12T21:06:45.077Z,46.95
2022-11-12T21:09:31.178Z,48.33
2022-11-12T21:12:16.968Z,47.53
2022-11-12T21:15:04.771Z,44.50
2022-11-12T21:17:52.462Z,44.88
2022-11-12T21:20:38.533Z,46.78
2022-11-12T21:23:24.310Z,45.40
2022-11-12T21:26:13.702Z,50.03
2022-11-12T21:28:59.201Z,47.25
2022-11-12T21:31:44.909Z,49.60
2022-11-12T21:34:30.559Z,53.45
2022-11-12T21:37:16.154Z,49.78
2022-11-12T21:40:02.022Z,49.97
2022-11-12T21:42:47.497Z,47.55
2022-11-12T21:45:33.846Z,51.05
2022-11-12T21:48:19.863Z,45.97
2022-11-12T21:51:08.386Z,50.33
2022-11-12T21:54:06.808Z,48.58
2022-11-12T21:56:52.270Z,49.17
2022-11-12T21:59:37.704Z,48.90
2022-11-12T22:02:23.228Z,51.55
2022-11-12T22:05:09.128Z,50.40
2022-11-12T22:07:54.499Z,54.45
2022-11-12T22:10:40.166Z,52.30
2022-11-12T22:13:27.537Z,55.58
2022-11-12T22:16:15.780Z,55.85
2022-11-12T22:19:01.162Z,51.60
2022-11-12T22:21:46.883Z,49.42
2022-11-12T22:24:32.292Z,50.97
2022-11-12T22:27:18.950Z,51.78
2022-11-12T22:30:05.348Z,53.67
2022-11-12T22:32:50.579Z,49.50
2022-11-12T22:35:36.227Z,51.42
2022-11-12T22:38:21.950Z,51.15
2022-11-12T22:41:10.956Z,53.50
2022-11-12T22:44:00.346Z,51.83
2022-11-12T22:46:46.146Z,52.03
2022-11-12T22:49:31.821Z,53.42
2022-11-12T22:52:17.628Z,53.00
2022-11-12T22:55:04.834Z,54.35
2022-11-12T22:57:50.104Z,52.47
2022-11-12T23:00:36.093Z,54.05
2022-11-12T23:03:21.933Z,54.53
2022-11-12T23:06:07.806Z,52.15
2022-11-12T23:08:54.278Z,52.67
2022-11-12T23:11:40.076Z,50.65
2022-11-12T23:14:25.522Z,53.88
2022-11-12T23:17:11.468Z,53.10
2022-11-12T23:19:57.310Z,52.90
2022-11-12T23:22:43.306Z,53.65
2022-11-12T23:25:29.937Z,51.75
2022-11-12T23:28:15.843Z,53.95
2022-11-12T23:31:04.022Z,57.92
2022-11-12T23:33:53.163Z,51.63
2022-11-12T23:36:39.163Z,53.70
2022-11-12T23:39:24.469Z,59.33
2022-11-12T23:42:10.189Z,62.08
2022-11-12T23:44:55.495Z,59.58
2022-11-12T23:47:41.071Z,59.00
2022-11-12T23:50:26.735Z,62.13
2022-11-12T23:53:12.722Z,59.58
2022-11-12T23:55:58.447Z,62.13
2022-11-12T23:58:44.405Z,59.50
